createdAt,value
2018-06-28T00:00:44.000Z,33
2018-06-28T00:01:44.000Z,33
2018-06-28T00:02:44.000Z,33
2018-06-28T00:03:44.000Z,33
2018-06-28T00:04:44.000Z,33
2018-06-28T00:06:44.000Z,33
2018-06-28T00:07:44.000Z,33
2018-06-28T00:08:44.000Z,33
2018-06-28T00:10:44.000Z,33
2018-06-28T00:11:44.000Z,33
2018-06-28T00:12:44.000Z,33
2018-06-28T00:14:44.000Z,33
2018-06-28T00:15:44.000Z,33
2018-06-28T00:16:44.000Z,33
2018-06-28T00:17:44.000Z,33
2018-06-28T00:18:44.000Z,33
2018-06-28T00:19:44.000Z,33
2018-06-28T00:20:44.000Z,33
2018-06-28T00:21:44.000Z,33
2018-06-28T00:25:30.000Z,33
2018-06-28T00:26:30.000Z,33
2018-06-28T00:27:30.000Z,33
2018-06-28T00:28:30.000Z,33
2018-06-28T00:29:30.000Z,33
2018-06-28T00:30:30.000Z,33
2018-06-28T00:32:30.000Z,33
2018-06-28T00:33:30.000Z,33
2018-06-28T00:34:30.000Z,33
2018-06-28T00:35:30.000Z,33
2018-06-28T00:36:30.000Z,33
2018-06-28T00:37:30.000Z,33
2018-06-28T00:38:30.000Z,33
2018-06-28T00:39:30.000Z,33
2018-06-28T00:40:30.000Z,33
2018-06-28T00:41:30.000Z,33
2018-06-28T00:42:30.000Z,33
2018-06-28T00:43:30.000Z,33
2018-06-28T00:44:30.000Z,33
2018-06-28T00:45:30.000Z,33
2018-06-28T00:46:30.000Z,33
2018-06-28T00:47:30.000Z,33
2018-06-28T00:48:30.000Z,33
2018-06-28T00:49:30.000Z,33
2018-06-28T00:50:30.000Z,33
2018-06-28T00:51:30.000Z,33
2018-06-28T00:53:30.000Z,33
2018-06-28T00:54:30.000Z,33
2018-06-28T00:55:30.000Z,33
2018-06-28T00:56:30.000Z,33
2018-06-28T00:57:30.000Z,33
2018-06-28T00:58:30.000Z,33
2018-06-28T00:59:30.000Z,33
2018-06-28T01:00:30.000Z,33
2018-06-28T01:01:30.000Z,33
2018-06-28T01:02:30.000Z,33
2018-06-28T01:04:30.000Z,33
2018-06-28T01:05:30.000Z,33
2018-06-28T01:06:30.000Z,33
2018-06-28T01:07:30.000Z,33
2018-06-28T01:08:30.000Z,33
2018-06-28T01:09:30.000Z,33
2018-06-28T01:10:30.000Z,33
2018-06-28T01:11:30.000Z,33
2018-06-28T01:12:30.000Z,33
2018-06-28T01:13:30.000Z,33
2018-06-28T01:14:30.000Z,33
2018-06-28T01:15:30.000Z,33
2018-06-28T01:16:30.000Z,33
2018-06-28T01:17:30.000Z,33
2018-06-28T01:19:30.000Z,33
2018-06-28T01:21:30.000Z,33
2018-06-28T01:22:30.000Z,33
2018-06-28T01:23:30.000Z,33
2018-06-28T01:24:30.000Z,33
2018-06-28T01:25:30.000Z,33
2018-06-28T01:26:30.000Z,33
2018-06-28T01:27:30.000Z,33
2018-06-28T01:28:30.000Z,33
2018-06-28T01:29:30.000Z,33
2018-06-28T01:31:30.000Z,33
2018-06-28T01:32:30.000Z,33
2018-06-28T01:33:30.000Z,33
2018-06-28T01:35:30.000Z,33
2018-06-28T01:36:30.000Z,33
2018-06-28T01:37:30.000Z,33
2018-06-28T01:38:30.000Z,33
2018-06-28T01:40:30.000Z,33
2018-06-28T01:41:30.000Z,33
2018-06-28T01:42:30.000Z,33
2018-06-28T01:43:30.000Z,33
2018-06-28T01:44:30.000Z,33
2018-06-28T01:45:30.000Z,33
2018-06-28T01:46:30.000Z,33
2018-06-28T01:47:30.000Z,33
2018-06-28T01:48:30.000Z,33
2018-06-28T01:49:30.000Z,33
2018-06-28T01:50:30.000Z,33
2018-06-28T01:51:30.000Z,33
2018-06-28T01:52:30.000Z,33
2018-06-28T01:53:30.000Z,33
2018-06-28T01:54:30.000Z,33
2018-06-28T01:55:30.000Z,33
2018-06-28T01:56:30.000Z,33
2018-06-28T01:57:30.000Z,33
2018-06-28T01:58:30.000Z,33
2018-06-28T01:59:30.000Z,33
2018-06-28T02:00:30.000Z,33
2018-06-28T02:01:30.000Z,33
2018-06-28T02:02:30.000Z,33
2018-06-28T02:03:30.000Z,33
2018-06-28T02:04:30.000Z,33
2018-06-28T02:05:30.000Z,33
2018-06-28T02:06:30.000Z,33
2018-06-28T02:07:30.000Z,33
2018-06-28T02:08:30.000Z,33
2018-06-28T02:09:30.000Z,33
2018-06-28T02:10:30.000Z,33
2018-06-28T02:11:30.000Z,33
2018-06-28T02:12:30.000Z,33
2018-06-28T02:14:30.000Z,33
2018-06-28T02:15:30.000Z,33
2018-06-28T02:16:30.000Z,33
2018-06-28T02:17:30.000Z,33
2018-06-28T02:18:30.000Z,33
2018-06-28T02:19:30.000Z,33
2018-06-28T02:20:30.000Z,33
2018-06-28T02:21:30.000Z,33
2018-06-28T02:22:30.000Z,33
2018-06-28T02:24:30.000Z,33
2018-06-28T02:25:30.000Z,33
2018-06-28T02:26:30.000Z,33
2018-06-28T02:27:30.000Z,33
2018-06-28T02:28:30.000Z,33
2018-06-28T02:30:30.000Z,33
2018-06-28T02:31:30.000Z,33
2018-06-28T02:32:30.000Z,33
2018-06-28T02:33:30.000Z,33
2018-06-28T02:34:30.000Z,33
2018-06-28T02:35:30.000Z,33
2018-06-28T02:36:30.000Z,33
2018-06-28T02:37:30.000Z,33
2018-06-28T02:38:30.000Z,33
2018-06-28T02:39:30.000Z,33
2018-06-28T02:40:30.000Z,33
2018-06-28T02:41:30.000Z,33
2018-06-28T02:42:30.000Z,33
2018-06-28T02:43:30.000Z,33
2018-06-28T02:44:30.000Z,33
2018-06-28T02:45:30.000Z,33
2018-06-28T02:47:30.000Z,33
2018-06-28T02:48:30.000Z,33
2018-06-28T02:49:30.000Z,33
2018-06-28T02:50:30.000Z,33
2018-06-28T02:51:30.000Z,33
2018-06-28T02:52:30.000Z,33
2018-06-28T02:53:30.000Z,33
2018-06-28T02:54:30.000Z,33
2018-06-28T02:55:30.000Z,33
2018-06-28T02:56:30.000Z,33
2018-06-28T02:58:30.000Z,33
2018-06-28T02:59:30.000Z,33
2018-06-28T03:00:30.000Z,33
2018-06-28T03:01:30.000Z,33
2018-06-28T03:02:30.000Z,33
2018-06-28T03:03:30.000Z,33
2018-06-28T03:05:30.000Z,33
2018-06-28T03:06:30.000Z,33
2018-06-28T03:07:30.000Z,33
2018-06-28T03:08:30.000Z,33
2018-06-28T03:10:30.000Z,33
2018-06-28T03:11:30.000Z,33
2018-06-28T03:12:30.000Z,33
2018-06-28T03:13:30.000Z,33
2018-06-28T03:14:30.000Z,33
2018-06-28T03:15:30.000Z,33
2018-06-28T03:17:29.000Z,33
2018-06-28T03:18:29.000Z,33
2018-06-28T03:19:29.000Z,33
2018-06-28T03:20:29.000Z,33
2018-06-28T03:21:29.000Z,33
2018-06-28T03:23:29.000Z,33
2018-06-28T03:24:29.000Z,33
2018-06-28T03:25:29.000Z,33
2018-06-28T03:26:29.000Z,33
2018-06-28T03:27:29.000Z,33
2018-06-28T03:28:29.000Z,34
2018-06-28T03:29:29.000Z,33
2018-06-28T03:30:29.000Z,34
2018-06-28T03:31:29.000Z,33
2018-06-28T03:32:29.000Z,34
2018-06-28T03:33:29.000Z,33
2018-06-28T03:35:29.000Z,33
2018-06-28T03:36:29.000Z,34
2018-06-28T03:37:29.000Z,33
2018-06-28T03:38:29.000Z,34
2018-06-28T03:40:29.000Z,33
2018-06-28T03:42:29.000Z,33
2018-06-28T03:43:29.000Z,34
2018-06-28T03:44:29.000Z,34
2018-06-28T03:46:29.000Z,33
2018-06-28T03:47:29.000Z,34
2018-06-28T03:48:29.000Z,34
2018-06-28T03:50:29.000Z,33
2018-06-28T03:51:29.000Z,34
2018-06-28T03:52:29.000Z,33
2018-06-28T03:54:29.000Z,33
2018-06-28T03:56:29.000Z,33
2018-06-28T03:57:29.000Z,33
2018-06-28T03:58:29.000Z,34
2018-06-28T03:59:29.000Z,34
2018-06-28T04:01:29.000Z,33
2018-06-28T04:02:29.000Z,33
2018-06-28T04:03:29.000Z,33
2018-06-28T04:04:29.000Z,33
2018-06-28T04:05:29.000Z,33
2018-06-28T04:06:29.000Z,33
2018-06-28T04:08:29.000Z,33
2018-06-28T04:09:29.000Z,33
2018-06-28T04:10:29.000Z,33
2018-06-28T04:11:29.000Z,33
2018-06-28T04:12:29.000Z,33
2018-06-28T04:13:29.000Z,33
2018-06-28T04:14:29.000Z,33
2018-06-28T04:15:29.000Z,33
2018-06-28T04:16:29.000Z,33
2018-06-28T04:17:29.000Z,33
2018-06-28T04:18:29.000Z,33
2018-06-28T04:19:29.000Z,33
2018-06-28T04:20:29.000Z,33
2018-06-28T04:21:30.000Z,33
2018-06-28T04:22:30.000Z,33
2018-06-28T04:24:30.000Z,33
2018-06-28T04:26:30.000Z,33
2018-06-28T04:27:30.000Z,33
2018-06-28T04:28:30.000Z,33
2018-06-28T04:30:30.000Z,33
2018-06-28T04:31:30.000Z,33
2018-06-28T04:32:30.000Z,33
2018-06-28T04:33:30.000Z,33
2018-06-28T04:34:30.000Z,33
2018-06-28T04:36:30.000Z,33
2018-06-28T04:37:30.000Z,33
2018-06-28T04:38:30.000Z,33
2018-06-28T04:39:30.000Z,33
2018-06-28T04:40:30.000Z,33
2018-06-28T04:41:30.000Z,33
2018-06-28T04:42:30.000Z,33
2018-06-28T04:43:30.000Z,33
2018-06-28T04:44:30.000Z,33
2018-06-28T04:45:30.000Z,33
2018-06-28T04:46:30.000Z,33
2018-06-28T04:47:30.000Z,33
2018-06-28T04:48:30.000Z,33
2018-06-28T04:49:30.000Z,33
2018-06-28T04:50:30.000Z,33
2018-06-28T04:51:30.000Z,33
2018-06-28T04:52:30.000Z,33
2018-06-28T04:54:30.000Z,33
2018-06-28T04:55:30.000Z,33
2018-06-28T04:56:30.000Z,33
2018-06-28T04:57:30.000Z,33
2018-06-28T04:58:30.000Z,33
2018-06-28T04:59:30.000Z,33
2018-06-28T05:00:30.000Z,33
2018-06-28T05:01:30.000Z,33
2018-06-28T05:02:30.000Z,33
2018-06-28T05:04:30.000Z,33
2018-06-28T05:05:30.000Z,33
2018-06-28T05:06:30.000Z,33
2018-06-28T05:07:30.000Z,33
2018-06-28T05:08:30.000Z,33
2018-06-28T05:09:30.000Z,33
2018-06-28T05:11:30.000Z,33
2018-06-28T05:12:30.000Z,33
2018-06-28T05:13:30.000Z,33
2018-06-28T05:15:30.000Z,33
2018-06-28T05:16:30.000Z,33
2018-06-28T05:17:30.000Z,33
2018-06-28T05:18:30.000Z,33
2018-06-28T05:20:30.000Z,33
2018-06-28T05:21:30.000Z,33
2018-06-28T05:22:30.000Z,33
2018-06-28T05:23:30.000Z,33
2018-06-28T05:24:30.000Z,33
2018-06-28T05:25:29.000Z,33
2018-06-28T05:26:29.000Z,33
2018-06-28T05:27:29.000Z,33
2018-06-28T05:28:29.000Z,33
2018-06-28T05:29:29.000Z,33
2018-06-28T05:30:29.000Z,33
2018-06-28T05:31:29.000Z,33
2018-06-28T05:32:29.000Z,33
2018-06-28T05:33:29.000Z,33
2018-06-28T05:34:29.000Z,33
2018-06-28T05:36:29.000Z,32
2018-06-28T05:37:29.000Z,33
2018-06-28T05:38:29.000Z,33
2018-06-28T05:39:29.000Z,33
2018-06-28T05:41:29.000Z,33
2018-06-28T05:42:29.000Z,33
2018-06-28T05:43:29.000Z,33
2018-06-28T05:44:29.000Z,33
2018-06-28T05:45:29.000Z,33
2018-06-28T05:46:29.000Z,33
2018-06-28T05:47:29.000Z,33
2018-06-28T05:48:29.000Z,33
2018-06-28T05:49:29.000Z,33
2018-06-28T05:51:29.000Z,33
2018-06-28T05:52:29.000Z,33
2018-06-28T05:53:29.000Z,33
2018-06-28T05:54:29.000Z,33
2018-06-28T05:55:29.000Z,33
2018-06-28T05:56:29.000Z,33
2018-06-28T05:58:29.000Z,32
2018-06-28T05:59:29.000Z,33
2018-06-28T06:00:29.000Z,33
2018-06-28T06:01:29.000Z,33
2018-06-28T06:02:29.000Z,33
2018-06-28T06:03:29.000Z,33
2018-06-28T06:04:29.000Z,33
2018-06-28T06:05:29.000Z,33
2018-06-28T06:06:29.000Z,33
2018-06-28T06:07:29.000Z,33
2018-06-28T06:08:29.000Z,33
2018-06-28T06:09:29.000Z,33
2018-06-28T06:10:29.000Z,33
2018-06-28T06:11:29.000Z,32
2018-06-28T06:13:29.000Z,32
2018-06-28T06:14:29.000Z,33
2018-06-28T06:15:29.000Z,33
2018-06-28T06:16:29.000Z,33
2018-06-28T06:18:29.000Z,34
2018-06-28T06:20:29.000Z,34
2018-06-28T06:21:29.000Z,34
2018-06-28T06:22:29.000Z,34
2018-06-28T06:23:29.000Z,35
2018-06-28T06:24:29.000Z,35
2018-06-28T06:25:29.000Z,35
2018-06-28T06:26:29.000Z,35
2018-06-28T06:27:29.000Z,34
2018-06-28T06:28:29.000Z,34
2018-06-28T06:29:30.000Z,34
2018-06-28T06:30:30.000Z,34
2018-06-28T06:31:30.000Z,35
2018-06-28T06:32:30.000Z,34
2018-06-28T06:33:30.000Z,35
2018-06-28T06:34:30.000Z,35
2018-06-28T06:35:30.000Z,35
2018-06-28T06:37:30.000Z,35
2018-06-28T06:38:30.000Z,35
2018-06-28T06:39:30.000Z,35
2018-06-28T06:40:30.000Z,35
2018-06-28T06:41:30.000Z,35
2018-06-28T06:42:30.000Z,35
2018-06-28T06:44:30.000Z,35
2018-06-28T06:45:30.000Z,35
2018-06-28T06:46:30.000Z,35
2018-06-28T06:47:30.000Z,35
2018-06-28T06:48:30.000Z,35
2018-06-28T06:50:30.000Z,35
2018-06-28T06:51:30.000Z,36
2018-06-28T06:52:30.000Z,36
2018-06-28T06:53:30.000Z,36
2018-06-28T06:54:30.000Z,36
2018-06-28T06:56:30.000Z,35
2018-06-28T06:57:30.000Z,36
2018-06-28T06:58:30.000Z,36
2018-06-28T06:59:30.000Z,36
2018-06-28T07:00:30.000Z,36
2018-06-28T07:01:30.000Z,36
2018-06-28T07:02:30.000Z,36
2018-06-28T07:03:30.000Z,36
2018-06-28T07:04:30.000Z,36
2018-06-28T07:06:30.000Z,36
2018-06-28T07:08:30.000Z,36
2018-06-28T07:09:30.000Z,36
2018-06-28T07:10:30.000Z,36
2018-06-28T07:11:30.000Z,36
2018-06-28T07:12:30.000Z,36
2018-06-28T07:13:30.000Z,36
2018-06-28T07:14:30.000Z,36
2018-06-28T07:15:30.000Z,36
2018-06-28T07:16:30.000Z,36
2018-06-28T07:17:30.000Z,35
2018-06-28T07:18:30.000Z,36
2018-06-28T07:19:30.000Z,36
2018-06-28T07:21:30.000Z,36
2018-06-28T07:22:30.000Z,36
2018-06-28T07:23:30.000Z,36
2018-06-28T07:24:30.000Z,36
2018-06-28T07:25:30.000Z,36
2018-06-28T07:27:30.000Z,35
2018-06-28T07:28:30.000Z,36
2018-06-28T07:30:30.000Z,35
2018-06-28T07:31:30.000Z,35
2018-06-28T07:32:29.000Z,35
2018-06-28T07:33:29.000Z,36
2018-06-28T07:35:29.000Z,35
2018-06-28T07:36:29.000Z,35
2018-06-28T07:37:29.000Z,36
2018-06-28T07:39:29.000Z,35
2018-06-28T07:40:29.000Z,35
2018-06-28T07:41:29.000Z,35
2018-06-28T07:42:29.000Z,35
2018-06-28T07:43:29.000Z,35
2018-06-28T07:44:29.000Z,35
2018-06-28T07:45:29.000Z,35
2018-06-28T07:46:29.000Z,35
2018-06-28T07:47:29.000Z,35
2018-06-28T07:48:29.000Z,35
2018-06-28T07:49:29.000Z,35
2018-06-28T07:50:29.000Z,35
2018-06-28T07:51:29.000Z,35
2018-06-28T07:52:29.000Z,35
2018-06-28T07:54:29.000Z,35
2018-06-28T07:55:29.000Z,35
2018-06-28T07:56:29.000Z,35
2018-06-28T07:58:29.000Z,35
2018-06-28T07:59:29.000Z,35
2018-06-28T08:00:29.000Z,35
2018-06-28T08:01:29.000Z,35
2018-06-28T08:02:29.000Z,35
2018-06-28T08:03:29.000Z,35
2018-06-28T08:04:29.000Z,34
2018-06-28T08:05:29.000Z,34
2018-06-28T08:06:29.000Z,34
2018-06-28T08:07:29.000Z,34
2018-06-28T08:08:29.000Z,34
2018-06-28T08:10:29.000Z,34
2018-06-28T08:11:29.000Z,34
2018-06-28T08:12:29.000Z,34
2018-06-28T08:13:29.000Z,34
2018-06-28T08:14:29.000Z,34
2018-06-28T08:15:29.000Z,34
2018-06-28T08:16:29.000Z,34
2018-06-28T08:17:29.000Z,34
2018-06-28T08:18:29.000Z,33
2018-06-28T08:20:29.000Z,33
2018-06-28T08:21:29.000Z,33
2018-06-28T08:22:29.000Z,33
2018-06-28T08:23:29.000Z,33
2018-06-28T08:24:29.000Z,33
2018-06-28T08:25:29.000Z,33
2018-06-28T08:26:29.000Z,33
2018-06-28T08:27:29.000Z,33
2018-06-28T08:28:29.000Z,33
2018-06-28T08:30:29.000Z,33
2018-06-28T08:31:29.000Z,33
2018-06-28T08:32:29.000Z,33
2018-06-28T08:33:29.000Z,33
2018-06-28T08:34:29.000Z,33
2018-06-28T08:35:29.000Z,33
2018-06-28T08:36:30.000Z,33
2018-06-28T08:37:30.000Z,33
2018-06-28T08:38:30.000Z,32
2018-06-28T08:39:30.000Z,32
2018-06-28T08:40:30.000Z,32
2018-06-28T08:42:30.000Z,32
2018-06-28T08:44:30.000Z,31
2018-06-28T08:45:30.000Z,31
2018-06-28T08:47:30.000Z,30
2018-06-28T08:48:30.000Z,30
2018-06-28T08:49:30.000Z,30
2018-06-28T08:50:30.000Z,30
2018-06-28T08:51:30.000Z,31
2018-06-28T08:52:30.000Z,31
2018-06-28T08:53:30.000Z,31
2018-06-28T08:55:30.000Z,31
2018-06-28T08:56:30.000Z,31
2018-06-28T08:57:30.000Z,31
2018-06-28T08:58:30.000Z,31
2018-06-28T08:59:30.000Z,31
2018-06-28T09:01:30.000Z,31
2018-06-28T09:03:30.000Z,31
2018-06-28T09:04:30.000Z,31
2018-06-28T09:05:30.000Z,31
2018-06-28T09:06:30.000Z,32
2018-06-28T09:07:30.000Z,31
2018-06-28T09:08:30.000Z,32
2018-06-28T09:09:30.000Z,31
2018-06-28T09:10:30.000Z,32
2018-06-28T09:11:30.000Z,31
2018-06-28T09:12:30.000Z,31
2018-06-28T09:13:30.000Z,31
2018-06-28T09:14:30.000Z,31
2018-06-28T09:15:30.000Z,31
2018-06-28T09:16:30.000Z,31
2018-06-28T09:17:30.000Z,32
2018-06-28T09:18:30.000Z,32
2018-06-28T09:19:30.000Z,32
2018-06-28T09:20:30.000Z,31
2018-06-28T09:22:30.000Z,31
2018-06-28T09:23:30.000Z,31
2018-06-28T09:24:30.000Z,31
2018-06-28T09:25:30.000Z,31
2018-06-28T09:26:30.000Z,31
2018-06-28T09:27:30.000Z,31
2018-06-28T09:28:30.000Z,31
2018-06-28T09:29:30.000Z,31
2018-06-28T09:30:30.000Z,31
2018-06-28T09:31:30.000Z,31
2018-06-28T09:32:30.000Z,31
2018-06-28T09:33:30.000Z,31
2018-06-28T09:34:30.000Z,31
2018-06-28T09:35:30.000Z,31
2018-06-28T09:36:30.000Z,31
2018-06-28T09:37:30.000Z,31
2018-06-28T09:38:30.000Z,31
2018-06-28T09:39:30.000Z,31
2018-06-28T09:40:29.000Z,31
2018-06-28T09:41:29.000Z,31
2018-06-28T09:42:29.000Z,31
2018-06-28T09:43:29.000Z,31
2018-06-28T09:44:29.000Z,31
2018-06-28T09:45:29.000Z,31
2018-06-28T09:46:29.000Z,31
2018-06-28T09:47:29.000Z,31
2018-06-28T09:48:29.000Z,31
2018-06-28T09:49:29.000Z,31
2018-06-28T09:50:29.000Z,31
2018-06-28T09:51:29.000Z,31
2018-06-28T09:52:29.000Z,31
2018-06-28T09:53:29.000Z,31
2018-06-28T09:54:29.000Z,31
2018-06-28T09:55:29.000Z,31
2018-06-28T09:56:29.000Z,31
2018-06-28T09:58:29.000Z,31
2018-06-28T09:59:29.000Z,31
2018-06-28T10:00:29.000Z,31
2018-06-28T10:02:29.000Z,31
2018-06-28T10:04:29.000Z,31
2018-06-28T10:05:29.000Z,31
2018-06-28T10:06:29.000Z,31
2018-06-28T10:07:29.000Z,31
2018-06-28T10:08:29.000Z,31
2018-06-28T10:09:29.000Z,31
2018-06-28T10:10:29.000Z,30
2018-06-28T10:11:29.000Z,31
2018-06-28T10:13:29.000Z,30
2018-06-28T10:14:29.000Z,31
2018-06-28T10:15:29.000Z,30
2018-06-28T10:16:29.000Z,30
2018-06-28T10:17:29.000Z,30
2018-06-28T10:18:29.000Z,30
2018-06-28T10:19:29.000Z,30
2018-06-28T10:20:29.000Z,30
2018-06-28T10:21:29.000Z,30
2018-06-28T10:22:29.000Z,30
2018-06-28T10:24:29.000Z,30
2018-06-28T10:25:29.000Z,30
2018-06-28T10:26:29.000Z,30
2018-06-28T10:27:29.000Z,30
2018-06-28T10:28:29.000Z,30
2018-06-28T10:29:29.000Z,30
2018-06-28T10:30:29.000Z,30
2018-06-28T10:31:29.000Z,29
2018-06-28T10:32:29.000Z,29
2018-06-28T10:33:29.000Z,29
2018-06-28T10:34:29.000Z,30
2018-06-28T10:35:29.000Z,30
2018-06-28T10:36:29.000Z,30
2018-06-28T10:37:29.000Z,30
2018-06-28T10:38:29.000Z,30
2018-06-28T10:39:29.000Z,29
2018-06-28T10:40:29.000Z,30
2018-06-28T10:42:29.000Z,29
2018-06-28T10:43:29.000Z,29
2018-06-28T10:44:29.000Z,29
2018-06-28T10:45:29.000Z,30
2018-06-28T10:46:29.000Z,29
2018-06-28T10:47:29.000Z,29
2018-06-28T10:48:29.000Z,29
2018-06-28T10:49:29.000Z,29
2018-06-28T10:50:29.000Z,29
2018-06-28T10:51:29.000Z,29
2018-06-28T10:52:29.000Z,29
2018-06-28T10:54:29.000Z,29
2018-06-28T10:55:29.000Z,30
2018-06-28T10:56:29.000Z,30
2018-06-28T10:57:29.000Z,30
2018-06-28T10:58:29.000Z,30
2018-06-28T10:59:29.000Z,30
2018-06-28T11:00:29.000Z,30
2018-06-28T11:01:29.000Z,30
2018-06-28T11:02:29.000Z,29
2018-06-28T11:03:29.000Z,30
2018-06-28T11:04:29.000Z,30
2018-06-28T11:05:29.000Z,29
2018-06-28T11:06:29.000Z,29
2018-06-28T11:07:29.000Z,29
2018-06-28T11:08:29.000Z,29
2018-06-28T11:09:29.000Z,29
2018-06-28T11:10:29.000Z,29
2018-06-28T11:11:29.000Z,29
2018-06-28T11:12:29.000Z,29
2018-06-28T11:13:29.000Z,29
2018-06-28T11:14:29.000Z,29
2018-06-28T11:15:29.000Z,29
2018-06-28T11:16:29.000Z,29
2018-06-28T11:18:29.000Z,29
2018-06-28T11:19:29.000Z,29
2018-06-28T11:20:29.000Z,29
2018-06-28T11:21:29.000Z,29
2018-06-28T11:22:29.000Z,29
2018-06-28T11:23:29.000Z,29
2018-06-28T11:24:29.000Z,29
2018-06-28T11:25:29.000Z,29
2018-06-28T11:26:29.000Z,29
2018-06-28T11:27:29.000Z,29
2018-06-28T11:28:29.000Z,29
2018-06-28T11:29:29.000Z,30
2018-06-28T11:31:29.000Z,29
2018-06-28T11:32:29.000Z,30
2018-06-28T11:34:29.000Z,29
2018-06-28T11:35:29.000Z,30
2018-06-28T11:36:29.000Z,29
2018-06-28T11:37:29.000Z,29
2018-06-28T11:38:29.000Z,29
2018-06-28T11:39:29.000Z,29
2018-06-28T11:40:29.000Z,29
2018-06-28T11:41:29.000Z,29
2018-06-28T11:42:29.000Z,29
2018-06-28T11:43:29.000Z,29
2018-06-28T11:45:29.000Z,29
2018-06-28T11:46:29.000Z,29
2018-06-28T11:47:29.000Z,29
2018-06-28T11:48:30.000Z,29
2018-06-28T11:49:30.000Z,29
2018-06-28T11:50:30.000Z,29
2018-06-28T11:51:30.000Z,29
2018-06-28T11:52:30.000Z,29
2018-06-28T11:53:30.000Z,29
2018-06-28T11:54:30.000Z,30
2018-06-28T11:55:30.000Z,29
2018-06-28T11:56:30.000Z,30
2018-06-28T11:57:30.000Z,30
2018-06-28T11:58:30.000Z,29
2018-06-28T11:59:30.000Z,30
2018-06-28T12:00:30.000Z,30
2018-06-28T12:02:30.000Z,29
2018-06-28T12:46:04.000Z,31
2018-06-28T12:47:04.000Z,31
2018-06-28T12:48:04.000Z,31
2018-06-28T12:49:04.000Z,31
2018-06-28T12:50:04.000Z,31
2018-06-28T12:51:04.000Z,31
2018-06-28T12:52:04.000Z,31
2018-06-28T12:53:04.000Z,31
2018-06-28T12:55:04.000Z,30
2018-06-28T12:56:04.000Z,30
2018-06-28T12:58:04.000Z,30
2018-06-28T12:59:04.000Z,30
2018-06-28T13:00:04.000Z,30
2018-06-28T13:01:04.000Z,30
2018-06-28T13:03:04.000Z,29
2018-06-28T13:04:04.000Z,29
2018-06-28T13:05:04.000Z,29
2018-06-28T13:06:04.000Z,29
2018-06-28T13:07:04.000Z,29
2018-06-28T13:08:04.000Z,29
2018-06-28T13:09:04.000Z,29
2018-06-28T13:10:04.000Z,29
2018-06-28T13:11:04.000Z,29
2018-06-28T13:12:04.000Z,29
2018-06-28T13:13:04.000Z,29
2018-06-28T13:14:04.000Z,29
2018-06-28T13:15:04.000Z,29
2018-06-28T13:16:04.000Z,29
2018-06-28T13:17:04.000Z,29
2018-06-28T13:18:04.000Z,29
2018-06-28T13:19:04.000Z,29
2018-06-28T13:20:04.000Z,29
2018-06-28T13:21:04.000Z,29
2018-06-28T13:22:04.000Z,29
2018-06-28T13:24:04.000Z,29
2018-06-28T13:26:04.000Z,29
2018-06-28T13:27:04.000Z,29
2018-06-28T13:28:04.000Z,29
2018-06-28T13:29:04.000Z,29
2018-06-28T13:30:04.000Z,29
2018-06-28T13:31:04.000Z,29
2018-06-28T13:32:04.000Z,29
2018-06-28T13:34:04.000Z,29
2018-06-28T13:35:04.000Z,29
2018-06-28T13:36:04.000Z,29
2018-06-28T13:37:04.000Z,29
2018-06-28T13:38:04.000Z,29
2018-06-28T13:39:04.000Z,29
2018-06-28T13:40:04.000Z,29
2018-06-28T13:41:04.000Z,29
2018-06-28T13:42:04.000Z,29
2018-06-28T13:43:04.000Z,29
2018-06-28T13:45:04.000Z,29
2018-06-28T13:46:04.000Z,29
2018-06-28T13:47:04.000Z,29
2018-06-28T13:49:04.000Z,28
2018-06-28T13:50:04.000Z,28
2018-06-28T13:51:04.000Z,28
2018-06-28T13:52:04.000Z,28
2018-06-28T13:53:04.000Z,28
2018-06-28T13:54:04.000Z,28
2018-06-28T13:55:04.000Z,28
2018-06-28T13:56:04.000Z,28
2018-06-28T13:58:04.000Z,28
2018-06-28T13:59:04.000Z,28
2018-06-28T14:00:04.000Z,28
2018-06-28T14:01:04.000Z,28
2018-06-28T14:02:04.000Z,29
2018-06-28T14:03:04.000Z,29
2018-06-28T14:04:04.000Z,29
2018-06-28T14:05:04.000Z,28
2018-06-28T14:06:04.000Z,29
2018-06-28T14:07:04.000Z,28
2018-06-28T14:08:04.000Z,28
2018-06-28T14:09:04.000Z,28
2018-06-28T14:10:04.000Z,29
2018-06-28T14:11:04.000Z,29
2018-06-28T14:13:04.000Z,28
2018-06-28T14:14:04.000Z,28
2018-06-28T14:15:04.000Z,29
2018-06-28T14:16:04.000Z,29
2018-06-28T14:18:04.000Z,28
2018-06-28T14:19:04.000Z,29
2018-06-28T14:21:04.000Z,28
2018-06-28T14:22:04.000Z,28
2018-06-28T14:23:04.000Z,28
2018-06-28T14:25:04.000Z,28
2018-06-28T14:28:50.000Z,29
2018-06-28T14:29:50.000Z,29
2018-06-28T14:30:50.000Z,29
2018-06-28T14:31:50.000Z,29
2018-06-28T14:32:50.000Z,29
2018-06-28T14:33:50.000Z,29
2018-06-28T14:34:50.000Z,29
2018-06-28T14:35:50.000Z,28
2018-06-28T14:37:50.000Z,28
2018-06-28T14:38:50.000Z,28
2018-06-28T14:40:50.000Z,28
2018-06-28T14:41:50.000Z,28
2018-06-28T14:42:50.000Z,28
2018-06-28T14:43:50.000Z,28
2018-06-28T14:44:50.000Z,28
2018-06-28T14:45:50.000Z,28
2018-06-28T14:46:50.000Z,28
2018-06-28T14:48:50.000Z,28
2018-06-28T14:49:50.000Z,28
2018-06-28T14:50:50.000Z,28
2018-06-28T14:51:50.000Z,28
2018-06-28T14:52:50.000Z,28
2018-06-28T14:53:50.000Z,28
2018-06-28T14:54:50.000Z,28
2018-06-28T14:55:50.000Z,28
2018-06-28T14:56:50.000Z,28
2018-06-28T14:57:50.000Z,28
2018-06-28T14:58:50.000Z,29
2018-06-28T14:59:50.000Z,28
2018-06-28T15:00:50.000Z,28
2018-06-28T15:01:50.000Z,28
2018-06-28T15:02:50.000Z,28
2018-06-28T15:03:50.000Z,28
2018-06-28T15:04:50.000Z,29
2018-06-28T15:05:50.000Z,28
2018-06-28T15:06:50.000Z,28
2018-06-28T15:07:50.000Z,29
2018-06-28T15:08:50.000Z,28
2018-06-28T15:09:50.000Z,28
2018-06-28T15:10:50.000Z,28
2018-06-28T15:11:50.000Z,28
2018-06-28T15:12:50.000Z,29
2018-06-28T15:13:50.000Z,29
2018-06-28T15:14:50.000Z,29
2018-06-28T15:15:50.000Z,29
2018-06-28T15:16:50.000Z,29
2018-06-28T15:17:50.000Z,29
2018-06-28T15:18:50.000Z,29
2018-06-28T15:19:50.000Z,29
2018-06-28T15:21:50.000Z,29
2018-06-28T15:22:50.000Z,29
2018-06-28T15:23:50.000Z,29
2018-06-28T15:25:50.000Z,29
2018-06-28T15:26:50.000Z,29
2018-06-28T15:27:50.000Z,29
2018-06-28T15:28:50.000Z,29
2018-06-28T15:29:50.000Z,29
2018-06-28T15:30:50.000Z,29
2018-06-28T15:31:50.000Z,29
2018-06-28T15:32:50.000Z,29
2018-06-28T15:33:50.000Z,29
2018-06-28T15:34:50.000Z,29
2018-06-28T15:35:50.000Z,29
2018-06-28T15:36:50.000Z,29
2018-06-28T15:37:50.000Z,29
2018-06-28T15:38:50.000Z,29
2018-06-28T15:39:50.000Z,29
2018-06-28T15:41:50.000Z,29
2018-06-28T15:42:50.000Z,29
2018-06-28T15:43:50.000Z,29
2018-06-28T15:44:50.000Z,29
2018-06-28T15:45:50.000Z,29
2018-06-28T15:46:50.000Z,29
2018-06-28T15:47:50.000Z,29
2018-06-28T15:48:50.000Z,29
2018-06-28T15:49:50.000Z,29
2018-06-28T15:50:50.000Z,29
2018-06-28T15:51:50.000Z,28
2018-06-28T15:53:50.000Z,28
2018-06-28T15:55:50.000Z,28
2018-06-28T15:56:50.000Z,28
2018-06-28T15:57:50.000Z,28
2018-06-28T15:58:50.000Z,28
2018-06-28T16:00:51.000Z,28
2018-06-28T16:01:51.000Z,28
2018-06-28T16:02:51.000Z,28
2018-06-28T16:03:51.000Z,28
2018-06-28T16:04:51.000Z,28
2018-06-28T16:05:51.000Z,28
2018-06-28T16:06:51.000Z,28
2018-06-28T16:07:51.000Z,29
2018-06-28T16:08:51.000Z,29
2018-06-28T16:09:51.000Z,29
2018-06-28T16:10:51.000Z,29
2018-06-28T16:12:51.000Z,29
2018-06-28T16:13:51.000Z,29
2018-06-28T16:14:51.000Z,29
2018-06-28T16:15:51.000Z,29
2018-06-28T16:16:51.000Z,29
2018-06-28T16:17:51.000Z,29
2018-06-28T16:19:51.000Z,29
2018-06-28T16:20:51.000Z,29
2018-06-28T16:21:51.000Z,29
2018-06-28T16:23:51.000Z,29
2018-06-28T16:24:51.000Z,29
2018-06-28T16:25:51.000Z,29
2018-06-28T16:26:51.000Z,29
2018-06-28T16:27:51.000Z,29
2018-06-28T16:28:51.000Z,29
2018-06-28T16:29:51.000Z,29
2018-06-28T16:30:51.000Z,29
2018-06-28T16:31:51.000Z,29
2018-06-28T16:32:51.000Z,29
2018-06-28T16:33:51.000Z,29
2018-06-28T16:34:51.000Z,29
2018-06-28T16:35:51.000Z,29
2018-06-28T16:36:51.000Z,29
2018-06-28T16:37:51.000Z,29
2018-06-28T16:38:51.000Z,29
2018-06-28T16:39:51.000Z,29
2018-06-28T16:41:51.000Z,29
2018-06-28T16:42:51.000Z,29
2018-06-28T16:43:51.000Z,29
2018-06-28T16:45:51.000Z,29
2018-06-28T16:46:51.000Z,29
2018-06-28T16:48:51.000Z,29
2018-06-28T16:49:51.000Z,29
2018-06-28T16:50:51.000Z,29
2018-06-28T16:52:51.000Z,29